createdAt,value
2022-10-21T00:03:33.099Z,5.98
2022-10-21T00:08:35.849Z,6.13
2022-10-21T00:13:39.630Z,6.16
2022-10-21T00:18:43.328Z,6.07
2022-10-21T00:23:46.094Z,5.99
2022-10-21T00:28:48.455Z,6.12
2022-10-21T00:33:50.804Z,6.07
2022-10-21T00:38:53.082Z,6.25
2022-10-21T00:43:57.456Z,6.04
2022-10-21T00:49:00.595Z,6.01
2022-10-21T00:54:03.427Z,5.88
2022-10-21T00:59:06.037Z,5.91
2022-10-21T01:04:08.385Z,5.93
2022-10-21T01:09:11.055Z,5.85
2022-10-21T01:14:13.475Z,5.80
2022-10-21T01:19:40.486Z,5.62
2022-10-21T01:24:42.759Z,5.59
2022-10-21T01:30:07.130Z,5.78
2022-10-21T01:35:45.923Z,5.62
2022-10-21T01:40:57.480Z,5.57
2022-10-21T01:46:15.911Z,5.56
2022-10-21T01:51:18.887Z,5.48
2022-10-21T01:56:21.793Z,5.57
2022-10-21T02:01:25.003Z,5.35
2022-10-21T02:06:27.933Z,5.27
2022-10-21T02:11:30.431Z,5.49
2022-10-21T02:16:37.147Z,5.53
2022-10-21T02:21:39.711Z,5.50
2022-10-21T02:26:42.069Z,5.38
2022-10-21T02:32:03.359Z,5.61
2022-10-21T02:37:27.001Z,5.51
2022-10-21T02:42:33.097Z,5.48
2022-10-21T02:47:38.263Z,5.41
2022-10-21T02:52:40.818Z,5.41
2022-10-21T02:57:43.142Z,5.54
2022-10-21T03:02:45.438Z,5.27
2022-10-21T03:07:47.850Z,5.46
2022-10-21T03:12:50.917Z,5.47
2022-10-21T03:17:53.256Z,5.19
2022-10-21T03:22:55.547Z,5.15
2022-10-21T03:27:57.916Z,5.22
2022-10-21T03:33:00.283Z,5.24
2022-10-21T03:38:02.677Z,5.23
2022-10-21T03:43:04.984Z,5.26
2022-10-21T03:48:07.385Z,5.39
2022-10-21T03:53:18.559Z,5.48
2022-10-21T03:58:28.426Z,5.64
2022-10-21T04:03:30.742Z,5.52
2022-10-21T04:08:33.075Z,5.63
2022-10-21T04:13:35.920Z,5.53
2022-10-21T04:18:38.196Z,5.71
2022-10-21T04:23:40.527Z,5.62
2022-10-21T04:28:42.772Z,5.65
2022-10-21T04:33:45.237Z,5.55
2022-10-21T04:38:48.106Z,5.59
2022-10-21T04:43:50.486Z,5.63
2022-10-21T04:48:52.803Z,5.60
2022-10-21T04:53:55.068Z,5.62
2022-10-21T04:58:57.361Z,5.41
2022-10-21T05:03:59.711Z,5.52
2022-10-21T05:09:02.642Z,5.49
2022-10-21T05:14:05.052Z,5.59
2022-10-21T05:19:07.357Z,5.49
2022-10-21T05:24:10.001Z,5.57
2022-10-21T05:29:12.472Z,5.57
2022-10-21T05:34:14.856Z,5.56
2022-10-21T05:39:17.185Z,5.64
2022-10-21T05:44:19.506Z,5.78
2022-10-21T05:49:21.810Z,5.99
2022-10-21T05:54:24.066Z,6.10
2022-10-21T05:59:27.036Z,6.19
2022-10-21T06:04:29.305Z,6.25
2022-10-21T06:09:31.643Z,6.18
2022-10-21T06:14:36.348Z,6.28
2022-10-21T06:19:38.727Z,6.26
2022-10-21T06:24:41.068Z,6.47
2022-10-21T06:29:43.323Z,6.66
2022-10-21T06:34:45.640Z,6.75
2022-10-21T06:39:47.981Z,6.84
2022-10-21T06:44:50.200Z,7.02
2022-10-21T06:49:52.425Z,7.07
2022-10-21T06:54:54.724Z,7.25
2022-10-21T06:59:57.080Z,7.24
2022-10-21T07:04:59.471Z,7.15
2022-10-21T07:10:01.799Z,7.20
2022-10-21T07:15:04.434Z,7.57
2022-10-21T07:20:07.302Z,7.73
2022-10-21T07:25:09.869Z,7.47
2022-10-21T07:30:12.366Z,7.62
2022-10-21T07:35:14.735Z,7.80
2022-10-21T07:40:17.084Z,7.96
2022-10-21T07:45:19.458Z,8.03
2022-10-21T07:50:22.000Z,7.97
2022-10-21T07:55:24.320Z,8.31
2022-10-21T08:00:26.649Z,8.21
2022-10-21T08:05:28.940Z,8.21
2022-10-21T08:10:31.219Z,8.40
2022-10-21T08:15:33.593Z,8.83
2022-10-21T08:20:43.432Z,9.08
2022-10-21T08:25:50.414Z,9.50
2022-10-21T08:30:52.947Z,9.67
2022-10-21T08:35:55.233Z,9.72
2022-10-21T08:40:57.546Z,9.83
2022-10-21T08:46:10.232Z,9.84
2022-10-21T08:51:34.276Z,9.88
2022-10-21T08:56:36.593Z,9.77
2022-10-21T09:01:44.744Z,9.68
2022-10-21T09:07:02.719Z,9.72
2022-10-21T09:12:16.841Z,9.78
2022-10-21T09:17:34.604Z,9.71
2022-10-21T09:22:58.664Z,9.77
2022-10-21T09:28:03.479Z,10.01
2022-10-21T09:33:31.824Z,10.25
2022-10-21T09:38:46.273Z,10.37
2022-10-21T09:43:49.330Z,10.31
2022-10-21T09:49:23.175Z,10.41
2022-10-21T09:54:19.154Z,10.28
2022-10-21T09:59:23.508Z,10.56
2022-10-21T10:04:33.815Z,11.00
2022-10-21T10:09:39.195Z,11.08
2022-10-21T10:14:43.759Z,11.01
2022-10-21T10:20:06.169Z,10.90
2022-10-21T10:25:09.653Z,11.16
2022-10-21T10:30:14.279Z,10.90
2022-10-21T10:35:25.724Z,10.82
2022-10-21T10:40:39.667Z,10.64
2022-10-21T10:45:55.415Z,10.89
2022-10-21T10:50:58.377Z,10.86
2022-10-21T10:56:06.409Z,11.05
2022-10-21T11:01:13.851Z,11.35
2022-10-21T11:06:19.640Z,11.53
2022-10-21T11:11:26.852Z,11.63
2022-10-21T11:16:57.289Z,11.68
2022-10-21T11:22:25.527Z,11.74
2022-10-21T11:27:39.790Z,11.54
2022-10-21T11:33:05.430Z,11.49
2022-10-21T11:38:45.190Z,11.65
2022-10-21T11:44:14.907Z,11.59
2022-10-21T11:49:37.299Z,11.55
2022-10-21T11:55:09.984Z,11.80
2022-10-21T12:00:21.726Z,11.82
2022-10-21T12:05:32.814Z,11.85
2022-10-21T12:10:47.831Z,11.65
2022-10-21T12:15:52.635Z,11.84
2022-10-21T12:20:55.583Z,11.71
2022-10-21T12:26:25.634Z,11.99
2022-10-21T12:31:30.645Z,11.91
2022-10-21T12:36:46.891Z,12.04
2022-10-21T12:41:49.285Z,12.02
2022-10-21T12:46:57.914Z,12.39
2022-10-21T12:52:03.051Z,12.31
2022-10-21T12:57:07.826Z,12.38
2022-10-21T13:02:18.276Z,12.26
2022-10-21T13:07:26.607Z,12.04
2022-10-21T13:12:31.744Z,12.19
2022-10-21T13:17:54.871Z,12.07
2022-10-21T13:23:29.483Z,12.28
2022-10-21T13:28:31.984Z,12.08
2022-10-21T13:33:37.530Z,12.03
2022-10-21T13:38:51.463Z,12.20
2022-10-21T13:43:55.990Z,12.24
2022-10-21T13:49:01.388Z,11.99
2022-10-21T13:54:10.973Z,12.06
2022-10-21T13:59:25.046Z,12.27
2022-10-21T14:04:34.881Z,12.16
2022-10-21T14:09:41.171Z,12.12
2022-10-21T14:14:43.566Z,11.90
2022-10-21T14:19:56.959Z,11.98
2022-10-21T14:25:02.050Z,12.00
2022-10-21T14:30:07.555Z,11.94
2022-10-21T14:35:10.316Z,11.71
2022-10-21T14:40:32.449Z,11.80
2022-10-21T14:45:37.144Z,11.71
2022-10-21T14:50:40.857Z,11.53
2022-10-21T14:55:43.627Z,11.68
2022-10-21T15:00:47.114Z,11.58
2022-10-21T15:05:49.517Z,11.34
2022-10-21T15:10:58.121Z,11.42
2022-10-21T15:16:02.715Z,11.40
2022-10-21T15:21:09.921Z,11.38
2022-10-21T15:26:24.915Z,11.44
2022-10-21T15:31:29.220Z,11.43
2022-10-21T15:36:31.527Z,11.53
2022-10-21T15:41:33.915Z,11.50
2022-10-21T15:46:46.161Z,11.53
2022-10-21T15:51:50.180Z,11.27
2022-10-21T15:56:54.622Z,11.45
2022-10-21T16:01:58.136Z,11.57
2022-10-21T16:07:00.563Z,11.56
2022-10-21T16:12:02.927Z,11.71
2022-10-21T16:17:05.342Z,11.56
2022-10-21T16:22:19.490Z,11.28
2022-10-21T16:27:31.355Z,11.44
2022-10-21T16:32:44.133Z,11.51
2022-10-21T16:37:48.057Z,11.53
2022-10-21T16:42:51.350Z,11.56
2022-10-21T16:47:56.794Z,11.54
2022-10-21T16:53:02.013Z,11.46
2022-10-21T16:58:04.335Z,11.35
2022-10-21T17:03:06.603Z,11.26
2022-10-21T17:08:08.885Z,11.43
2022-10-21T17:13:12.462Z,11.15
2022-10-21T17:18:15.800Z,11.24
2022-10-21T17:23:18.359Z,11.39
2022-10-21T17:28:20.737Z,11.32
2022-10-21T17:33:23.619Z,11.31
2022-10-21T17:38:25.954Z,11.49
2022-10-21T17:43:28.587Z,11.57
2022-10-21T17:48:31.016Z,11.52
2022-10-21T17:53:33.315Z,11.58
2022-10-21T17:58:35.872Z,11.38
2022-10-21T18:03:38.899Z,11.51
2022-10-21T18:08:41.466Z,11.23
2022-10-21T18:13:44.236Z,11.26
2022-10-21T18:18:47.003Z,10.96
2022-10-21T18:23:53.548Z,11.11
2022-10-21T18:28:58.013Z,11.03
2022-10-21T18:34:02.302Z,10.89
2022-10-21T18:39:05.674Z,10.84
2022-10-21T18:44:09.335Z,10.61
2022-10-21T18:49:14.020Z,10.83
2022-10-21T18:54:16.510Z,10.89
2022-10-21T18:59:18.883Z,10.87
2022-10-21T19:04:21.171Z,10.91
2022-10-21T19:09:28.954Z,10.86
2022-10-21T19:14:33.865Z,10.85
2022-10-21T19:19:39.317Z,10.78
2022-10-21T19:24:42.147Z,10.89
2022-10-21T19:29:44.717Z,10.76
2022-10-21T19:34:46.970Z,10.76
2022-10-21T19:39:49.651Z,10.57
2022-10-21T19:44:52.094Z,10.59
2022-10-21T19:49:54.523Z,10.58
2022-10-21T19:54:56.823Z,10.75
2022-10-21T19:59:59.073Z,10.57
2022-10-21T20:05:01.485Z,10.57
2022-10-21T20:10:05.027Z,10.52
2022-10-21T20:15:07.740Z,10.39
2022-10-21T20:20:10.194Z,10.46
2022-10-21T20:25:12.591Z,10.20
2022-10-21T20:30:14.907Z,10.23
2022-10-21T20:35:17.191Z,10.48
2022-10-21T20:40:20.726Z,10.28
2022-10-21T20:45:23.075Z,10.24
2022-10-21T20:50:25.674Z,10.37
2022-10-21T20:55:28.087Z,10.45
2022-10-21T21:00:30.471Z,10.41
2022-10-21T21:05:38.123Z,10.20
2022-10-21T21:10:41.563Z,10.23
2022-10-21T21:15:43.953Z,10.30
2022-10-21T21:20:46.196Z,10.16
2022-10-21T21:25:48.608Z,10.42
2022-10-21T21:30:53.822Z,10.32
2022-10-21T21:35:59.423Z,10.48
2022-10-21T21:41:04.478Z,10.48
2022-10-21T21:46:08.914Z,10.25
2022-10-21T21:51:11.141Z,10.25
2022-10-21T21:56:13.447Z,10.27
2022-10-21T22:01:20.306Z,10.28
2022-10-21T22:11:31.052Z,10.35
2022-10-21T22:16:33.393Z,10.27
2022-10-21T22:21:35.779Z,10.26
2022-10-21T22:26:38.056Z,10.29
2022-10-21T22:31:40.303Z,10.48
2022-10-21T22:36:42.615Z,10.43
2022-10-21T22:41:44.938Z,10.52
2022-10-21T22:46:47.175Z,10.58
2022-10-21T22:56:56.627Z,10.69
2022-10-21T23:01:58.862Z,10.57
2022-10-21T23:07:01.143Z,10.65
2022-10-21T23:12:03.478Z,10.81
2022-10-21T23:17:05.776Z,10.69
2022-10-21T23:22:08.070Z,10.87
2022-10-21T23:27:11.017Z,10.85
2022-10-21T23:32:13.335Z,10.50
2022-10-21T23:37:15.785Z,10.74
2022-10-21T23:42:18.180Z,10.66
2022-10-21T23:47:20.488Z,10.60
2022-10-21T23:52:22.807Z,10.60
2022-10-21T23:57:26.186Z,10.68
